Time;durP1;ratioP1;P1;durP2;ratioP2;P2;SDS_P1;SDS_P2;PMS_P1;PMS_P2;Temp;Humidity;BMP_temperature;BMP_pressure;BME280_temperature;BME280_humidity;BME280_pressure;Samples;Min_cycle;Max_cycle;Signal;HPM_P1;HPM_P2
2024/02/17 00:00:20;;;;;;;25.70;19.50;;;;;;;0.51;100.00;99033.48;105866;1254;61562;-85
2024/02/17 00:02:48;;;;;;;27.90;18.80;;;;;;;0.52;100.00;99028.89;105830;1260;73706;-85
2024/02/17 00:05:15;;;;;;;22.60;18.70;;;;;;;0.52;100.00;99032.77;105615;1259;73683;-85
2024/02/17 00:07:42;;;;;;;23.30;18.10;;;;;;;0.51;100.00;99029.96;105844;1254;73561;-85
2024/02/17 00:10:09;;;;;;;26.10;19.40;;;;;;;0.52;100.00;99032.58;105710;1258;61099;-85
2024/02/17 00:12:37;;;;;;;27.40;20.70;;;;;;;0.53;100.00;99034.50;105867;1266;61157;-85
2024/02/17 00:15:06;;;;;;;30.30;21.00;;;;;;;0.54;100.00;99035.17;105795;1259;73238;-85
2024/02/17 00:17:34;;;;;;;28.50;18.60;;;;;;;0.55;100.00;99034.11;106253;1254;75440;-84
2024/02/17 00:20:03;;;;;;;29.20;20.50;;;;;;;0.55;100.00;99034.11;106042;1259;71799;-84
2024/02/17 00:22:30;;;;;;;29.40;20.20;;;;;;;0.53;100.00;99036.63;105851;1254;61298;-84
2024/02/17 00:24:57;;;;;;;24.30;19.30;;;;;;;0.51;100.00;99038.59;105816;1254;61041;-85
2024/02/17 00:27:24;;;;;;;24.40;18.80;;;;;;;0.51;100.00;99030.65;105886;1257;73939;-87
2024/02/17 00:29:52;;;;;;;22.60;18.20;;;;;;;0.52;100.00;99038.39;105889;1253;72643;-85
2024/02/17 00:32:19;;;;;;;26.00;19.00;;;;;;;0.54;100.00;99038.38;105723;1253;71686;-85
2024/02/17 00:34:46;;;;;;;23.20;16.90;;;;;;;0.55;100.00;99030.25;105808;1260;61084;-85
2024/02/17 00:37:13;;;;;;;21.10;16.80;;;;;;;0.56;100.00;99034.80;105881;1254;61094;-85
2024/02/17 00:39:40;;;;;;;23.30;17.30;;;;;;;0.57;100.00;99035.67;105805;1254;72987;-85
2024/02/17 00:42:07;;;;;;;24.50;17.60;;;;;;;0.57;100.00;99031.96;105850;1257;75202;-85
2024/02/17 00:44:34;;;;;;;21.60;16.80;;;;;;;0.58;100.00;99032.66;105843;1253;72721;-85
2024/02/17 00:47:02;;;;;;;20.90;17.20;;;;;;;0.59;100.00;99031.57;105815;1266;61238;-85
2024/02/17 00:49:30;;;;;;;21.30;17.40;;;;;;;0.61;100.00;99034.54;105712;1259;61051;-85
2024/02/17 00:51:58;;;;;;;20.80;16.80;;;;;;;0.60;100.00;99033.14;105616;1260;73318;-86
2024/02/17 00:54:25;;;;;;;21.50;17.90;;;;;;;0.60;100.00;99026.98;105813;1257;72831;-85
2024/02/17 00:56:52;;;;;;;22.10;18.40;;;;;;;0.60;100.00;99031.73;105837;1257;72428;-87
2024/02/17 00:59:19;;;;;;;23.10;18.70;;;;;;;0.60;100.00;99025.74;105646;1260;61211;-87
2024/02/17 01:01:46;;;;;;;22.40;17.70;;;;;;;0.60;100.00;99023.63;105829;1257;61068;-85
2024/02/17 01:04:17;;;;;;;22.70;18.20;;;;;;;0.62;100.00;99025.19;105682;1260;73816;-85
2024/02/17 01:06:44;;;;;;;22.80;18.50;;;;;;;0.61;100.00;99019.55;105880;1257;74307;-87
2024/02/17 01:09:11;;;;;;;26.80;19.60;;;;;;;0.61;100.00;99021.15;105647;1260;73638;-84
2024/02/17 01:11:39;;;;;;;23.50;19.20;;;;;;;0.59;100.00;99021.35;105877;1257;61094;-85
2024/02/17 01:14:06;;;;;;;27.40;18.30;;;;;;;0.58;100.00;99019.97;106030;1257;61155;-85
2024/02/17 01:16:34;;;;;;;23.70;16.60;;;;;;;0.56;100.00;99021.77;106175;1254;73733;-84
2024/02/17 01:19:01;;;;;;;23.60;18.40;;;;;;;0.56;100.00;99019.65;106394;1254;74285;-85
2024/02/17 01:21:31;;;;;;;21.40;17.40;;;;;;;0.55;100.00;99018.77;105792;1258;73013;-84
2024/02/17 01:23:58;;;;;;;20.30;16.90;;;;;;;0.53;100.00;99015.65;105849;1254;61052;-86
2024/02/17 01:26:27;;;;;;;22.20;17.70;;;;;;;0.53;100.00;99016.70;105991;1259;61058;-85
2024/02/17 01:28:54;;;;;;;20.70;16.20;;;;;;;0.50;100.00;99010.77;105734;1260;72257;-85
2024/02/17 01:31:21;;;;;;;22.30;17.20;;;;;;;0.49;100.00;99012.37;105656;1254;72725;-85
2024/02/17 01:33:50;;;;;;;23.40;17.90;;;;;;;0.48;100.00;99007.83;105803;1255;72855;-85
2024/02/17 01:36:19;;;;;;;21.50;16.80;;;;;;;0.47;100.00;99002.22;105751;1258;61093;-84
2024/02/17 01:38:46;;;;;;;22.90;16.60;;;;;;;0.45;100.00;98998.54;105821;1260;61101;-87
2024/02/17 01:41:14;;;;;;;19.50;16.30;;;;;;;0.45;100.00;98999.24;105761;1254;74497;-87
2024/02/17 01:43:41;;;;;;;19.70;16.20;;;;;;;0.44;100.00;98992.05;105875;1258;74613;-86
2024/02/17 01:46:08;;;;;;;21.00;16.60;;;;;;;0.42;100.00;98998.77;105813;1260;71728;-85
2024/02/17 01:48:35;;;;;;;23.80;17.40;;;;;;;0.40;100.00;98985.08;105892;1258;61280;-86
2024/02/17 01:51:04;;;;;;;20.70;16.80;;;;;;;0.38;100.00;98992.50;105733;1254;61084;-84
2024/02/17 01:53:31;;;;;;;22.90;16.30;;;;;;;0.37;100.00;98990.23;105920;1253;73231;-85
2024/02/17 01:55:58;;;;;;;18.20;15.80;;;;;;;0.35;100.00;98983.38;105787;1255;73339;-85
2024/02/17 01:58:25;;;;;;;20.00;16.20;;;;;;;0.35;100.00;98987.44;105798;1257;72916;-87
2024/02/17 02:00:52;;;;;;;22.90;17.10;;;;;;;0.34;100.00;98987.45;105752;1260;61221;-87
2024/02/17 02:03:20;;;;;;;22.90;16.10;;;;;;;0.33;100.00;98985.89;105876;1253;61052;-86
2024/02/17 02:05:48;;;;;;;21.60;17.60;;;;;;;0.32;100.00;98991.71;105844;1254;74118;-85
2024/02/17 02:08:15;;;;;;;20.60;15.50;;;;;;;0.31;100.00;98989.63;105863;1254;72230;-84
2024/02/17 02:10:42;;;;;;;17.70;15.70;;;;;;;0.30;100.00;98986.65;105675;1254;71861;-84
2024/02/17 02:13:09;;;;;;;20.50;16.50;;;;;;;0.30;100.00;98989.30;105810;1253;61546;-85
2024/02/17 02:15:44;;;;;;;21.80;16.70;;;;;;;0.30;100.00;98981.91;105817;1253;61063;-83
2024/02/17 02:18:21;;;;;;;18.60;16.20;;;;;;;0.30;100.00;98980.83;106360;1254;74001;-83
2024/02/17 02:20:52;;;;;;;18.80;15.90;;;;;;;0.31;100.00;98980.47;109511;1254;74413;-84
2024/02/17 02:23:19;;;;;;;20.50;16.80;;;;;;;0.30;100.00;98980.48;109530;1254;72204;-85
2024/02/17 02:25:52;;;;;;;18.40;16.20;;;;;;;0.31;100.00;98982.91;109509;1253;58591;-85
2024/02/17 02:28:20;;;;;;;20.20;16.10;;;;;;;0.31;100.00;98978.89;109520;1253;59949;-85
2024/02/17 02:30:47;;;;;;;21.90;17.40;;;;;;;0.32;100.00;98980.45;109528;1253;71894;-85
2024/02/17 02:33:14;;;;;;;18.90;15.10;;;;;;;0.34;100.00;98975.13;109508;1254;74726;-84
2024/02/17 02:35:42;;;;;;;18.90;16.00;;;;;;;0.36;100.00;98977.02;109505;1253;71657;-84
2024/02/17 02:38:09;;;;;;;22.90;18.20;;;;;;;0.40;100.00;98967.45;107813;1254;60321;-85
2024/02/17 02:40:36;;;;;;;21.80;17.40;;;;;;;0.42;100.00;98970.59;106336;1253;60981;-85
2024/02/17 02:43:04;;;;;;;22.90;18.40;;;;;;;0.43;100.00;98966.67;106426;1257;73741;-85
2024/02/17 02:45:33;;;;;;;28.10;19.50;;;;;;;0.44;100.00;98975.83;106276;1254;74653;-85
2024/02/17 02:48:01;;;;;;;30.90;20.80;;;;;;;0.44;100.00;98969.65;106047;1257;72639;-85
2024/02/17 02:50:29;;;;;;;29.40;21.60;;;;;;;0.44;100.00;98969.31;106119;1254;61907;-85
2024/02/17 02:52:56;;;;;;;34.20;25.80;;;;;;;0.43;100.00;98973.04;106274;1254;61087;-85
2024/02/17 02:55:23;;;;;;;38.60;24.70;;;;;;;0.42;100.00;98964.95;106144;1257;71601;-86
2024/02/17 02:57:50;;;;;;;33.50;24.20;;;;;;;0.43;100.00;98973.39;105913;1254;74483;-88
2024/02/17 03:00:18;;;;;;;30.80;22.00;;;;;;;0.42;100.00;98971.98;105605;1254;71128;-85
2024/02/17 03:02:45;;;;;;;33.00;23.10;;;;;;;0.41;100.00;98973.77;105823;1254;61557;-85
2024/02/17 03:05:12;;;;;;;29.20;21.30;;;;;;;0.41;100.00;98970.60;105574;1255;61104;-85
2024/02/17 03:07:39;;;;;;;26.00;18.50;;;;;;;0.40;100.00;98969.23;105776;1254;73597;-85
2024/02/17 03:10:07;;;;;;;24.90;18.90;;;;;;;0.39;100.00;98974.34;105936;1257;74369;-84
2024/02/17 03:12:34;;;;;;;26.10;19.50;;;;;;;0.37;100.00;98973.85;105818;1260;73878;-87
2024/02/17 03:15:02;;;;;;;19.60;17.10;;;;;;;0.35;100.00;98979.70;105959;1260;61166;-86
2024/02/17 03:17:30;;;;;;;24.10;17.10;;;;;;;0.33;100.00;98977.25;106217;1254;61144;-83
2024/02/17 03:19:58;;;;;;;19.90;16.40;;;;;;;0.31;100.00;98973.77;106403;1257;73780;-84
2024/02/17 03:22:26;;;;;;;22.20;17.90;;;;;;;0.29;100.00;98975.92;106132;1254;74275;-85
2024/02/17 03:24:53;;;;;;;19.10;15.50;;;;;;;0.26;100.00;98971.23;106223;1254;72450;-83
2024/02/17 03:27:21;;;;;;;19.70;15.50;;;;;;;0.24;100.00;98976.21;105987;1258;61167;-85
2024/02/17 03:29:48;;;;;;;22.30;16.40;;;;;;;0.21;100.00;98978.37;105725;1254;61549;-86
2024/02/17 03:32:15;;;;;;;17.80;14.70;;;;;;;0.21;100.00;98975.73;105862;1257;73996;-84
2024/02/17 03:34:42;;;;;;;18.90;16.00;;;;;;;0.19;100.00;98974.71;105812;1259;73826;-85
2024/02/17 03:37:10;;;;;;;21.90;16.20;;;;;;;0.18;100.00;98970.84;105552;1254;72686;-84
2024/02/17 03:39:37;;;;;;;19.20;15.40;;;;;;;0.17;100.00;98977.39;105604;1261;61100;-85
2024/02/17 03:42:06;;;;;;;19.60;14.90;;;;;;;0.14;100.00;98973.02;105735;1254;61153;-86
2024/02/17 03:44:33;;;;;;;19.50;14.90;;;;;;;0.13;100.00;98974.27;105922;1254;73820;-85
2024/02/17 03:47:01;;;;;;;18.30;15.40;;;;;;;0.12;100.00;98971.31;105601;1254;75539;-87
2024/02/17 03:49:28;;;;;;;18.40;15.60;;;;;;;0.12;100.00;98978.17;105719;1254;72538;-86
2024/02/17 03:51:56;;;;;;;16.70;14.80;;;;;;;0.12;100.00;98970.25;105730;1254;61003;-88
2024/02/17 03:54:23;;;;;;;19.00;15.30;;;;;;;0.11;100.00;98974.14;105785;1255;61153;-86
2024/02/17 03:56:50;;;;;;;17.00;14.90;;;;;;;0.11;100.00;98973.61;105759;1260;73931;-87
2024/02/17 03:59:18;;;;;;;18.70;16.60;;;;;;;0.09;100.00;98971.54;105746;1258;74818;-86
2024/02/17 04:01:45;;;;;;;19.50;15.20;;;;;;;0.07;100.00;98975.27;105713;1260;72874;-86
2024/02/17 04:04:12;;;;;;;19.20;15.10;;;;;;;0.05;100.00;98972.66;106316;1254;61593;-85
2024/02/17 04:06:39;;;;;;;18.50;14.70;;;;;;;0.04;100.00;98980.27;106645;1256;61176;-85
2024/02/17 04:09:07;;;;;;;17.30;14.40;;;;;;;0.03;100.00;98979.04;105683;1254;72334;-84
2024/02/17 04:11:34;;;;;;;19.00;14.60;;;;;;;0.03;100.00;98976.56;105640;1261;73981;-86
2024/02/17 04:14:01;;;;;;;17.50;14.40;;;;;;;0.03;100.00;98976.75;105490;1254;71668;-85
2024/02/17 04:16:29;;;;;;;16.10;13.90;;;;;;;0.02;100.00;98968.13;105829;1254;61043;-85
2024/02/17 04:18:56;;;;;;;16.30;13.30;;;;;;;0.02;100.00;98966.54;105682;1254;61237;-85
2024/02/17 04:21:24;;;;;;;21.00;15.50;;;;;;;0.02;100.00;98968.13;105587;1257;75172;-85
2024/02/17 04:23:51;;;;;;;19.00;13.80;;;;;;;0.02;100.00;98966.20;105966;1254;75298;-84
2024/02/17 04:26:18;;;;;;;14.70;13.10;;;;;;;0.02;100.00;98963.92;105924;1257;71426;-84
2024/02/17 04:28:46;;;;;;;18.40;13.90;;;;;;;0.02;100.00;98964.96;106033;1254;60547;-86
2024/02/17 04:31:13;;;;;;;15.90;13.60;;;;;;;0.02;100.00;98963.21;105772;1258;61275;-87
2024/02/17 04:33:40;;;;;;;17.50;13.50;;;;;;;0.02;100.00;98968.13;105869;1254;73891;-86
2024/02/17 04:36:08;;;;;;;16.60;13.60;;;;;;;0.02;100.00;98965.48;105915;1254;75506;-85
2024/02/17 04:38:36;;;;;;;15.60;13.90;;;;;;;0.02;100.00;98967.96;105588;1260;71439;-86
2024/02/17 04:41:03;;;;;;;17.50;14.90;;;;;;;0.02;100.00;98966.02;105701;1254;61106;-84
2024/02/17 04:43:30;;;;;;;16.30;13.20;;;;;;;0.02;100.00;98974.83;105970;1257;61588;-85
2024/02/17 04:45:57;;;;;;;17.50;14.10;;;;;;;0.02;100.00;98976.23;106412;1254;74970;-86
2024/02/17 04:48:25;;;;;;;17.90;14.50;;;;;;;0.00;100.00;98975.39;105731;1257;74444;-84
2024/02/17 04:50:52;;;;;;;17.30;13.80;;;;;;;-0.02;100.00;98974.73;105866;1256;73710;-85
2024/02/17 04:53:19;;;;;;;16.50;13.50;;;;;;;-0.04;100.00;98974.93;105823;1254;61180;-85
2024/02/17 04:55:46;;;;;;;18.20;14.70;;;;;;;-0.04;100.00;98982.15;105981;1254;61052;-84
2024/02/17 04:58:17;;;;;;;17.40;14.30;;;;;;;-0.07;100.00;98976.73;106088;1254;72625;-86
2024/02/17 05:00:47;;;;;;;17.10;14.70;;;;;;;-0.08;100.00;98976.23;105868;1261;75443;-86
2024/02/17 05:03:15;;;;;;;18.80;14.70;;;;;;;-0.10;100.00;98980.83;105951;1255;73261;-85
2024/02/17 05:05:43;;;;;;;19.10;15.00;;;;;;;-0.11;100.00;98976.80;105989;1254;62211;-85
2024/02/17 05:08:11;;;;;;;20.40;14.50;;;;;;;-0.12;100.00;98980.35;105854;1254;61147;-84
2024/02/17 05:10:40;;;;;;;78.60;33.00;;;;;;;-0.14;100.00;98985.84;105943;1254;75086;-85
2024/02/17 05:13:07;;;;;;;225.80;80.70;;;;;;;-0.20;100.00;98981.35;105986;1254;75036;-84
2024/02/17 05:15:35;;;;;;;121.90;47.00;;;;;;;-0.26;100.00;98979.88;105869;1254;71662;-87
2024/02/17 05:18:02;;;;;;;78.00;32.50;;;;;;;-0.33;100.00;98985.81;105860;1254;61052;-87
2024/02/17 05:20:30;;;;;;;55.30;25.00;;;;;;;-0.40;100.00;98983.25;106098;1259;61204;-84
2024/02/17 05:22:58;;;;;;;37.40;21.90;;;;;;;-0.44;100.00;98994.05;106069;1253;74733;-86
2024/02/17 05:25:25;;;;;;;25.80;18.40;;;;;;;-0.46;100.00;98987.75;106030;1254;74087;-86
2024/02/17 05:27:52;;;;;;;19.90;15.50;;;;;;;-0.49;100.00;98990.80;105927;1254;72244;-87
2024/02/17 05:30:20;;;;;;;19.10;14.50;;;;;;;-0.54;100.00;98995.27;105930;1259;61132;-85
2024/02/17 05:32:47;;;;;;;20.00;14.20;;;;;;;-0.58;100.00;98995.15;106140;1257;61327;-86
2024/02/17 05:35:15;;;;;;;18.50;13.60;;;;;;;-0.61;100.00;98996.95;106049;1254;74640;-85
2024/02/17 05:37:42;;;;;;;17.10;13.80;;;;;;;-0.63;100.00;98993.29;107595;1254;75397;-84
2024/02/17 05:40:11;;;;;;;26.80;19.40;;;;;;;-0.66;100.00;99000.73;108233;1254;72258;-84
2024/02/17 05:42:39;;;;;;;24.90;19.00;;;;;;;-0.70;100.00;99002.18;108114;1254;61036;-84
2024/02/17 05:45:07;;;;;;;24.60;17.60;;;;;;;-0.71;100.00;99005.37;106174;1254;61040;-84
2024/02/17 05:47:34;;;;;;;28.90;16.40;;;;;;;-0.73;100.00;99001.87;105910;1255;73800;-86
2024/02/17 05:50:03;;;;;;;17.60;14.50;;;;;;;-0.72;100.00;99007.48;105845;1254;75547;-85
2024/02/17 05:52:32;;;;;;;17.90;14.10;;;;;;;-0.71;100.00;99010.12;105861;1254;72558;-85
2024/02/17 05:54:59;;;;;;;19.00;14.10;;;;;;;-0.71;100.00;99005.20;105608;1255;61152;-84
2024/02/17 05:57:27;;;;;;;17.90;14.50;;;;;;;-0.75;100.00;99010.15;105840;1254;61126;-86
2024/02/17 05:59:56;;;;;;;21.40;13.80;;;;;;;-0.75;100.00;99010.00;105958;1254;73090;-85
2024/02/17 06:02:24;;;;;;;16.60;14.20;;;;;;;-0.76;100.00;99014.40;105997;1253;74487;-86
2024/02/17 06:04:51;;;;;;;14.00;12.50;;;;;;;-0.77;100.00;99022.86;105899;1259;72636;-85
2024/02/17 06:07:19;;;;;;;16.70;14.80;;;;;;;-0.78;100.00;99024.11;106048;1259;61235;-87
2024/02/17 06:09:48;;;;;;;17.40;14.70;;;;;;;-0.80;100.00;99023.59;106226;1254;61001;-87
2024/02/17 06:12:16;;;;;;;19.40;15.70;;;;;;;-0.81;100.00;99024.32;106128;1254;72566;-85
2024/02/17 06:14:43;;;;;;;18.70;14.10;;;;;;;-0.82;100.00;99025.04;105962;1254;73477;-85
2024/02/17 06:17:12;;;;;;;15.80;13.70;;;;;;;-0.82;100.00;99029.61;105920;1257;71555;-85
2024/02/17 06:22:26;;;;;;;17.20;13.70;;;;;;;-0.80;100.00;99031.16;105909;1254;61807;-85
2024/02/17 06:24:53;;;;;;;19.70;14.00;;;;;;;-0.77;100.00;99035.86;105654;1253;74960;-86
2024/02/17 06:27:20;;;;;;;15.70;13.10;;;;;;;-0.73;100.00;99036.17;105915;1253;74028;-86
2024/02/17 06:29:48;;;;;;;16.00;12.80;;;;;;;-0.69;100.00;99035.40;106041;1253;73189;-87
2024/02/17 06:32:15;;;;;;;16.00;13.40;;;;;;;-0.66;100.00;99039.58;105927;1257;61098;-87
2024/02/17 06:34:42;;;;;;;15.20;12.00;;;;;;;-0.63;100.00;99047.99;105895;1253;61171;-86
2024/02/17 06:37:09;;;;;;;14.10;11.60;;;;;;;-0.59;100.00;99053.91;106041;1253;75088;-86
2024/02/17 06:39:37;;;;;;;14.90;12.00;;;;;;;-0.53;100.00;99051.90;106021;1253;73700;-87
2024/02/17 06:42:04;;;;;;;15.60;12.70;;;;;;;-0.47;100.00;99052.69;105926;1257;73092;-87
2024/02/17 06:44:31;;;;;;;16.60;13.80;;;;;;;-0.42;100.00;99055.60;105917;1257;61040;-87
2024/02/17 06:46:58;;;;;;;17.30;14.10;;;;;;;-0.34;100.00;99056.22;105882;1253;61614;-87
2024/02/17 06:49:26;;;;;;;22.80;14.70;;;;;;;-0.28;100.00;99062.27;106557;1257;71959;-87
2024/02/17 06:51:54;;;;;;;14.90;13.00;;;;;;;-0.21;100.00;99062.33;106992;1253;74269;-86
2024/02/17 06:54:21;;;;;;;14.50;12.00;;;;;;;-0.12;100.00;99061.15;106142;1253;72520;-88
2024/02/17 06:56:49;;;;;;;13.90;12.30;;;;;;;-0.05;100.00;99065.79;106029;1253;61051;-88
2024/02/17 06:59:16;;;;;;;12.40;10.80;;;;;;;0.02;100.00;99069.20;106383;1257;61267;-88
2024/02/17 07:01:43;;;;;;;16.20;12.10;;;;;;;0.09;100.00;99070.84;106142;1253;74251;-89
2024/02/17 07:04:10;;;;;;;13.10;11.40;;;;;;;0.15;100.00;99072.16;106122;1253;73227;-89
2024/02/17 07:06:37;;;;;;;14.40;12.50;;;;;;;0.22;100.00;99069.42;106175;1253;72448;-89
2024/02/17 07:09:06;;;;;;;14.50;11.70;;;;;;;0.27;100.00;99072.85;106085;1258;61063;-88
2024/02/17 07:11:34;;;;;;;11.80;10.60;;;;;;;0.32;100.00;99072.06;106027;1253;277067;-89
2024/02/17 07:14:02;;;;;;;11.90;10.30;;;;;;;0.36;100.00;99069.52;106097;1253;73521;-89
2024/02/17 07:16:29;;;;;;;15.40;11.80;;;;;;;0.41;100.00;99071.03;106235;1253;75236;-88
2024/02/17 07:18:59;;;;;;;14.10;11.30;;;;;;;0.44;100.00;99070.80;106120;1253;71458;-88
2024/02/17 07:21:27;;;;;;;14.00;11.80;;;;;;;0.48;100.00;99068.96;106297;1257;61112;-87
2024/02/17 07:23:55;;;;;;;11.10;9.90;;;;;;;0.51;100.00;99063.98;106499;1253;61043;-90
2024/02/17 07:26:22;;;;;;;12.20;10.80;;;;;;;0.56;100.00;99066.70;106308;1253;73931;-90
2024/02/17 07:28:50;;;;;;;13.40;10.20;;;;;;;0.61;100.00;99060.63;106235;1253;74339;-88
2024/02/17 07:31:20;;;;;;;14.90;12.40;;;;;;;0.65;100.00;99060.71;105978;1256;72116;-90
2024/02/17 07:33:49;;;;;;;15.00;11.90;;;;;;;0.71;100.00;99057.27;106343;1253;61027;-89
2024/02/17 07:36:20;;;;;;;14.80;13.30;;;;;;;0.77;100.00;99055.75;106964;1253;61051;-88
2024/02/17 07:39:01;;;;;;;17.00;13.20;;;;;;;0.82;100.00;99054.94;106619;1253;74042;-88
2024/02/17 07:41:29;;;;;;;20.40;13.70;;;;;;;0.88;100.00;99055.02;106571;1253;73887;-90
2024/02/17 07:43:56;;;;;;;18.60;14.80;;;;;;;0.93;100.00;99054.55;106129;1253;72545;-90
2024/02/17 07:46:23;;;;;;;17.40;15.60;;;;;;;0.98;100.00;99057.95;106603;1253;61161;-90
2024/02/17 07:48:50;;;;;;;16.60;13.30;;;;;;;1.03;100.00;99051.69;106474;1253;61116;-89
2024/02/17 07:51:18;;;;;;;14.90;12.90;;;;;;;1.10;100.00;99047.69;106444;1255;73538;-88
2024/02/17 07:53:45;;;;;;;14.60;12.80;;;;;;;1.17;100.00;99050.17;106245;1253;75341;-88
2024/02/17 07:56:13;;;;;;;12.10;10.70;;;;;;;1.26;100.00;99049.48;106202;1253;70883;-90
2024/02/17 07:58:40;;;;;;;12.50;11.00;;;;;;;1.34;100.00;99053.54;106435;1257;61052;-88
2024/02/17 08:01:07;;;;;;;11.40;10.20;;;;;;;1.42;100.00;99052.29;106571;1253;61172;-90
2024/02/17 08:03:36;;;;;;;12.20;10.90;;;;;;;1.51;100.00;99049.98;106150;1260;72842;-89
2024/02/17 08:06:03;;;;;;;11.70;10.50;;;;;;;1.57;100.00;99053.20;105965;1253;72376;-89
2024/02/17 08:08:31;;;;;;;12.10;10.50;;;;;;;1.64;100.00;99051.46;105968;1253;71429;-90
2024/02/17 08:10:58;;;;;;;10.80;9.60;;;;;;;1.72;100.00;99053.05;106039;1257;62512;-88
2024/02/17 08:13:25;;;;;;;12.60;11.30;;;;;;;1.79;100.00;99055.70;106168;1253;61127;-88
2024/02/17 08:15:53;;;;;;;11.30;9.80;;;;;;;1.85;100.00;99054.51;106125;1253;72211;-89
2024/02/17 08:18:20;;;;;;;11.70;10.50;;;;;;;1.92;100.00;99056.48;106201;1253;74315;-88
2024/02/17 08:20:49;;;;;;;12.50;11.20;;;;;;;1.98;100.00;99057.90;107569;1253;71456;-89
2024/02/17 08:23:16;;;;;;;13.00;11.40;;;;;;;2.06;100.00;99055.25;106991;1253;61169;-89
2024/02/17 08:25:43;;;;;;;12.50;10.60;;;;;;;2.14;100.00;99051.16;106113;1253;61268;-89
2024/02/17 08:28:10;;;;;;;15.10;11.00;;;;;;;2.22;100.00;99053.80;106057;1253;73762;-92
2024/02/17 08:30:37;;;;;;;17.70;15.10;;;;;;;2.29;100.00;99056.62;105995;1258;73258;-92
2024/02/17 08:33:04;;;;;;;23.70;16.30;;;;;;;2.36;100.00;99052.90;107486;1253;72974;-88
2024/02/17 08:35:32;;;;;;;14.60;12.70;;;;;;;2.45;100.00;99057.63;109532;1252;59929;-88
2024/02/17 08:37:59;;;;;;;15.00;13.40;;;;;;;2.56;100.00;99054.35;109566;1252;60489;-90
2024/02/17 08:40:27;;;;;;;13.00;11.60;;;;;;;2.66;100.00;99053.89;109630;1252;71498;-88
2024/02/17 08:42:54;;;;;;;13.40;12.10;;;;;;;2.76;100.00;99048.83;109519;1252;72859;-86
2024/02/17 08:45:21;;;;;;;14.20;12.00;;;;;;;2.87;100.00;99044.30;109628;1252;71161;-88
2024/02/17 08:47:49;;;;;;;16.40;11.70;;;;;;;2.99;100.00;99040.27;109499;1253;60089;-85
2024/02/17 08:50:18;;;;;;;13.90;12.40;;;;;;;3.10;100.00;99039.05;108334;1253;61037;-86
2024/02/17 08:52:45;;;;;;;14.00;12.20;;;;;;;3.22;100.00;99034.27;106403;1255;75401;-85
2024/02/17 08:55:12;;;;;;;13.20;11.30;;;;;;;3.33;100.00;99036.44;106550;1253;74210;-83
2024/02/17 08:57:39;;;;;;;14.80;12.60;;;;;;;3.43;100.00;99038.98;107194;1253;71254;-84
2024/02/17 09:00:09;;;;;;;16.10;12.10;;;;;;;3.53;100.00;99035.13;107510;1252;61416;-84
